KSTE

Details ICAO KSTE (STE)
Name Stevens Point Muni
Region United States
Timezone America/Chicago (UTC-5.0)
Plans Departing 4
Arriving 1
Stats Elevation 1,110 ft / 338 m (AMSL)
Location 44.544964° -89.530076°
Runways 2
Magnetic Variation 2.849° W
Sunrise 2018-05-24 10:23:11 UTC / 2018-05-24 05:23:11 Local
Sunset 2018-05-25 01:29:39 UTC / 2018-05-24 20:29:39 Local
Advertisement - Login to hide

Runways

ID Width Length Bearing (true) Bearing (mag) Surface Threshold Offset Overrun Length
03 120 ft / 37 m 6,028 ft / 1,837 m 29.55° 32.40° Asphalt 0 ft / 0 m 0 ft / 0 m
12 75 ft / 23 m 3,630 ft / 1,106 m 119.75° 122.60° Asphalt 0 ft / 0 m 0 ft / 0 m
21 120 ft / 37 m 6,028 ft / 1,837 m 209.56° 212.41° Asphalt 0 ft / 0 m 0 ft / 0 m
30 75 ft / 23 m 3,630 ft / 1,106 m 299.76° 302.61° Asphalt 0 ft / 0 m 0 ft / 0 m

Map

Weather


0- 5 10 15 20 25 30 35+ Temperature / ° C

Clouds and Precipitation
Forecast for 2018-05-25 00:00 UTC. Updated 5 hours ago

Ground ~20,000 ft ~40,000 ft Winds

METAR

KSTE 250355Z AUTO 19006KT 10SM CLR 22/15 A2998 RMK AO2 T02220150

TAF

Not found

Frequencies

Recorded 119.27 MHz AWOS 3
Unicom 122.70 MHz CTAF/UNICOM
Warning: Do not use this data for real-world aviation or navigation. No guarantee of current accuracy is given.